Time,TemperatureF,DewpointF,PressureIn,WindDirection,WindDirectionDegrees,WindSpeedMPH,WindSpeedGustMPH,Humidity,HourlyPrecipIn,Conditions,Clouds,dailyrainin,SolarRadiationWatts/m^2,SoftwareType,DateUTC
2013-11-24 00:09:00,24.9,18.0,30.46,NNE,13,3.0,9.0,75,0.00,,,0.03,0,weatherlink.com 1.10,2013-11-24 05:09:00,
2013-11-24 00:24:00,24.7,17.0,30.45,NE,40,3.0,11.0,73,0.00,,,0.03,0,weatherlink.com 1.10,2013-11-24 05:24:00,
2013-11-24 00:39:00,24.5,17.0,30.46,North,355,3.0,8.0,72,0.00,,,0.03,0,weatherlink.com 1.10,2013-11-24 05:39:00,
2013-11-24 00:54:00,24.2,17.0,30.46,North,349,3.0,7.0,73,0.00,,,0.03,0,weatherlink.com 1.10,2013-11-24 05:54:00,
2013-11-24 01:09:00,24.4,17.0,30.46,NNW,335,5.0,9.0,72,0.00,,,0.00,0,weatherlink.com 1.10,2013-11-24 06:09:00,
2013-11-24 01:24:00,24.3,16.0,30.46,North,355,4.0,10.0,72,0.00,,,0.00,0,weatherlink.com 1.10,2013-11-24 06:24:00,
2013-11-24 01:39:00,24.2,16.0,30.47,North,5,2.0,9.0,72,0.00,,,0.00,0,weatherlink.com 1.10,2013-11-24 06:39:00,
2013-11-24 01:55:00,23.6,15.0,30.47,NE,53,3.0,7.0,70,0.00,,,0.00,0,weatherlink.com 1.10,2013-11-24 06:55:00,
2013-11-24 02:10:00,23.1,14.0,30.48,NE,43,3.0,9.0,69,0.00,,,0.00,0,weatherlink.com 1.10,2013-11-24 07:10:00,
2013-11-24 02:25:00,22.6,14.0,30.48,NE,38,3.0,6.0,70,0.00,,,0.00,0,weatherlink.com 1.10,2013-11-24 07:25:00,
2013-11-24 02:40:00,22.2,13.0,30.48,NE,56,1.0,8.0,69,0.00,,,0.00,0,weatherlink.com 1.10,2013-11-24 07:40:00,
2013-11-24 02:55:00,22.0,14.0,30.48,NNE,30,4.0,6.0,70,0.00,,,0.00,0,weatherlink.com 1.10,2013-11-24 07:55:00,
2013-11-24 03:10:00,21.6,14.0,30.49,NE,40,0.0,7.0,72,0.00,,,0.00,0,weatherlink.com 1.10,2013-11-24 08:10:00,
2013-11-24 03:25:00,21.3,14.0,30.49,NE,44,0.0,5.0,72,0.00,,,0.00,0,weatherlink.com 1.10,2013-11-24 08:25:00,
2013-11-24 03:40:00,21.2,13.0,30.49,NNE,24,1.0,5.0,72,0.00,,,0.00,0,weatherlink.com 1.10,2013-11-24 08:40:00,
2013-11-24 03:55:00,20.9,14.0,30.49,NNE,17,2.0,6.0,73,0.00,,,0.00,0,weatherlink.com 1.10,2013-11-24 08:55:00,
2013-11-24 04:25:00,20.4,13.0,30.49,North,9,3.0,6.0,74,0.00,,,0.00,0,weatherlink.com 1.10,2013-11-24 09:25:00,
2013-11-24 04:40:00,20.2,14.0,30.50,NNE,12,0.0,6.0,76,0.00,,,0.00,0,weatherlink.com 1.10,2013-11-24 09:40:00,
2013-11-24 04:55:00,19.8,13.0,30.50,NNE,12,4.0,4.0,76,0.00,,,0.00,0,weatherlink.com 1.10,2013-11-24 09:55:00,
2013-11-24 05:10:00,19.5,13.0,30.51,North,355,3.0,5.0,77,0.00,,,0.00,0,weatherlink.com 1.10,2013-11-24 10:10:00,
2013-11-24 05:40:00,19.3,13.0,30.53,NNE,19,2.0,5.0,77,0.00,,,0.00,0,weatherlink.com 1.10,2013-11-24 10:40:00,
2013-11-24 05:55:00,19.2,13.0,30.53,NNE,31,1.0,5.0,78,0.00,,,0.00,0,weatherlink.com 1.10,2013-11-24 10:55:00,
2013-11-24 06:10:00,19.0,14.0,30.54,NNE,18,1.0,6.0,79,0.00,,,0.00,0,weatherlink.com 1.10,2013-11-24 11:10:00,
2013-11-24 06:25:00,18.9,14.0,30.54,NNE,13,2.0,4.0,80,0.00,,,0.00,0,weatherlink.com 1.10,2013-11-24 11:25:00,
2013-11-24 06:40:00,18.5,14.0,30.54,NNE,19,1.0,2.0,81,0.00,,,0.00,0,weatherlink.com 1.10,2013-11-24 11:40:00,
2013-11-24 06:55:00,18.2,13.0,30.55,North,10,1.0,3.0,81,0.00,,,0.00,0,weatherlink.com 1.10,2013-11-24 11:55:00,
2013-11-24 07:10:00,18.1,14.0,30.55,North,11,1.0,5.0,82,0.00,,,0.00,0,weatherlink.com 1.10,2013-11-24 12:10:00,
2013-11-24 07:25:00,18.0,14.0,30.56,North,360,2.0,4.0,83,0.00,,,0.00,0,weatherlink.com 1.10,2013-11-24 12:25:00,
2013-11-24 07:56:00,18.3,14.0,30.58,NNE,12,2.0,5.0,83,0.00,,,0.00,14,weatherlink.com 1.10,2013-11-24 12:56:00,
2013-11-24 08:11:00,18.8,14.0,30.58,NNE,26,0.0,6.0,82,0.00,,,0.00,16,weatherlink.com 1.10,2013-11-24 13:11:00,
2013-11-24 08:26:00,19.3,14.0,30.58,NNE,31,2.0,4.0,81,0.00,,,0.00,21,weatherlink.com 1.10,2013-11-24 13:26:00,
2013-11-24 08:41:00,19.9,15.0,30.59,NNE,21,1.0,6.0,80,0.00,,,0.00,25,weatherlink.com 1.10,2013-11-24 13:41:00,
2013-11-24 08:56:00,20.8,16.0,30.58,NE,35,1.0,3.0,80,0.00,,,0.00,30,weatherlink.com 1.10,2013-11-24 13:56:00,
2013-11-24 09:11:00,21.7,15.0,30.58,NNE,30,2.0,5.0,75,0.00,,,0.00,32,weatherlink.com 1.10,2013-11-24 14:11:00,
2013-11-24 09:26:00,22.6,15.0,30.59,ENE,71,1.0,6.0,72,0.00,,,0.00,28,weatherlink.com 1.10,2013-11-24 14:26:00,
2013-11-24 09:41:00,23.4,14.0,30.59,ENE,77,2.0,4.0,68,0.00,,,0.00,30,weatherlink.com 1.10,2013-11-24 14:41:00,
2013-11-24 09:56:00,23.9,14.0,30.59,NE,53,2.0,7.0,66,0.00,,,0.00,56,weatherlink.com 1.10,2013-11-24 14:56:00,
2013-11-24 10:11:00,24.6,13.0,30.60,NNE,19,2.0,6.0,62,0.00,,,0.00,37,weatherlink.com 1.10,2013-11-24 15:11:00,
2013-11-24 10:26:00,25.2,13.0,30.60,NE,55,2.0,7.0,59,0.00,,,0.00,315,weatherlink.com 1.10,2013-11-24 15:26:00,
2013-11-24 10:41:00,26.0,13.0,30.60,NE,53,1.0,9.0,57,0.00,,,0.00,439,weatherlink.com 1.10,2013-11-24 15:41:00,
2013-11-24 10:56:00,27.0,13.0,30.59,NE,54,1.0,6.0,56,0.00,,,0.00,462,weatherlink.com 1.10,2013-11-24 15:56:00,
2013-11-24 11:11:00,27.8,14.0,30.59,ENE,74,1.0,8.0,56,0.00,,,0.00,487,weatherlink.com 1.10,2013-11-24 16:11:00,
2013-11-24 11:26:00,28.9,15.0,30.58,ESE,119,7.0,10.0,56,0.00,,,0.00,519,weatherlink.com 1.10,2013-11-24 16:26:00,
2013-11-24 11:41:00,29.5,15.0,30.57,East,96,5.0,8.0,56,0.00,,,0.00,499,weatherlink.com 1.10,2013-11-24 16:41:00,
2013-11-24 11:56:00,29.8,14.0,30.57,ENE,62,2.0,6.0,51,0.00,,,0.00,541,weatherlink.com 1.10,2013-11-24 16:56:00,
2013-11-24 12:11:00,30.1,14.0,30.56,ENE,67,1.0,8.0,51,0.00,,,0.00,541,weatherlink.com 1.10,2013-11-24 17:11:00,
2013-11-24 12:26:00,30.8,14.0,30.55,NE,56,1.0,7.0,49,0.00,,,0.00,550,weatherlink.com 1.10,2013-11-24 17:26:00,
2013-11-24 12:41:00,30.8,13.0,30.53,ENE,59,1.0,9.0,48,0.00,,,0.00,497,weatherlink.com 1.10,2013-11-24 17:41:00,
2013-11-24 12:56:00,31.8,14.0,30.53,NE,49,3.0,8.0,48,0.00,,,0.00,552,weatherlink.com 1.10,2013-11-24 17:56:00,
2013-11-24 13:11:00,31.7,14.0,30.52,NE,41,4.0,7.0,49,0.00,,,0.00,471,weatherlink.com 1.10,2013-11-24 18:11:00,
2013-11-24 13:26:00,32.4,15.0,30.51,NE,51,1.0,7.0,48,0.01,,,0.01,513,weatherlink.com 1.10,2013-11-24 18:26:00,
2013-11-24 13:41:00,32.6,15.0,30.51,ENE,63,2.0,6.0,48,0.01,,,0.01,487,weatherlink.com 1.10,2013-11-24 18:41:00,
2013-11-24 13:56:00,32.8,12.0,30.49,East,85,3.0,9.0,43,0.01,,,0.01,439,weatherlink.com 1.10,2013-11-24 18:56:00,
2013-11-24 14:11:00,33.4,14.0,30.49,ENE,69,2.0,6.0,45,0.01,,,0.01,450,weatherlink.com 1.10,2013-11-24 19:11:00,
2013-11-24 14:26:00,33.7,14.0,30.48,NNE,22,1.0,7.0,44,0.00,,,0.01,425,weatherlink.com 1.10,2013-11-24 19:26:00,
2013-11-24 14:41:00,34.0,14.0,30.48,NNE,26,1.0,10.0,44,0.00,,,0.01,420,weatherlink.com 1.10,2013-11-24 19:41:00,
2013-11-24 14:57:00,34.3,12.0,30.47,ENE,71,2.0,7.0,39,0.00,,,0.01,306,weatherlink.com 1.10,2013-11-24 19:57:00,
2013-11-24 15:12:00,34.1,13.0,30.47,North,360,9.0,9.0,42,0.00,,,0.01,348,weatherlink.com 1.10,2013-11-24 20:12:00,
2013-11-24 15:27:00,34.3,14.0,30.47,NNE,33,1.0,6.0,44,0.00,,,0.01,339,weatherlink.com 1.10,2013-11-24 20:27:00,
2013-11-24 15:42:00,35.3,14.0,30.47,NE,40,1.0,5.0,42,0.00,,,0.01,283,weatherlink.com 1.10,2013-11-24 20:42:00,
2013-11-24 15:57:00,34.3,13.0,30.46,NE,56,2.0,7.0,41,0.00,,,0.01,253,weatherlink.com 1.10,2013-11-24 20:57:00,
2013-11-24 16:12:00,34.3,13.0,30.46,ENE,67,2.0,4.0,42,0.00,,,0.01,188,weatherlink.com 1.10,2013-11-24 21:12:00,
2013-11-24 16:27:00,33.8,13.0,30.47,NE,52,0.0,6.0,42,0.00,,,0.01,77,weatherlink.com 1.10,2013-11-24 21:27:00,
2013-11-24 16:42:00,32.6,12.0,30.47,NNE,15,3.0,4.0,43,0.00,,,0.01,69,weatherlink.com 1.10,2013-11-24 21:42:00,
2013-11-24 16:57:00,31.9,13.0,30.48,NE,40,0.0,2.0,45,0.00,,,0.01,28,weatherlink.com 1.10,2013-11-24 21:57:00,
2013-11-24 17:12:00,30.7,12.0,30.48,NNE,30,0.0,2.0,46,0.00,,,0.01,16,weatherlink.com 1.10,2013-11-24 22:12:00,
2013-11-24 17:27:00,29.6,13.0,30.48,NNE,30,0.0,1.0,51,0.00,,,0.01,5,weatherlink.com 1.10,2013-11-24 22:27:00,
2013-11-24 17:42:00,28.6,12.0,30.48,NNE,30,0.0,1.0,51,0.00,,,0.01,0,weatherlink.com 1.10,2013-11-24 22:42:00,
2013-11-24 17:57:00,27.8,13.0,30.48,NNE,30,0.0,2.0,54,0.00,,,0.01,0,weatherlink.com 1.10,2013-11-24 22:57:00,
2013-11-24 18:12:00,27.1,13.0,30.48,NNE,30,0.0,1.0,56,0.00,,,0.01,0,weatherlink.com 1.10,2013-11-24 23:12:00,
2013-11-24 18:27:00,26.8,14.0,30.49,NNE,30,0.0,1.0,59,0.00,,,0.01,0,weatherlink.com 1.10,2013-11-24 23:27:00,
2013-11-24 18:42:00,26.5,14.0,30.48,NNE,30,0.0,1.0,59,0.00,,,0.01,0,weatherlink.com 1.10,2013-11-24 23:42:00,
2013-11-24 18:57:00,26.3,14.0,30.48,NNE,30,0.0,1.0,60,0.00,,,0.01,0,weatherlink.com 1.10,2013-11-24 23:57:00,
2013-11-24 19:12:00,26.1,15.0,30.48,NNE,30,0.0,2.0,62,0.00,,,0.01,0,weatherlink.com 1.10,2013-11-25 00:12:00,
2013-11-24 19:27:00,25.7,14.0,30.47,NNE,30,0.0,1.0,62,0.00,,,0.01,0,weatherlink.com 1.10,2013-11-25 00:27:00,
2013-11-24 19:42:00,25.4,14.0,30.47,NNE,30,0.0,1.0,63,0.00,,,0.01,0,weatherlink.com 1.10,2013-11-25 00:42:00,
2013-11-24 19:57:00,25.0,14.0,30.47,NNE,30,0.0,1.0,63,0.00,,,0.01,0,weatherlink.com 1.10,2013-11-25 00:57:00,
2013-11-24 20:12:00,24.9,14.0,30.47,NNE,30,0.0,1.0,64,0.00,,,0.01,0,weatherlink.com 1.10,2013-11-25 01:12:00,
2013-11-24 20:27:00,24.8,14.0,30.47,NNE,30,0.0,2.0,64,0.00,,,0.01,0,weatherlink.com 1.10,2013-11-25 01:27:00,
2013-11-24 20:42:00,24.6,14.0,30.47,NNE,30,0.0,1.0,64,0.00,,,0.01,0,weatherlink.com 1.10,2013-11-25 01:42:00,
2013-11-24 20:57:00,24.4,14.0,30.46,NNE,30,0.0,0.0,65,0.00,,,0.01,0,weatherlink.com 1.10,2013-11-25 01:57:00,
2013-11-24 21:12:00,24.2,14.0,30.46,NNE,30,0.0,0.0,66,0.00,,,0.01,0,weatherlink.com 1.10,2013-11-25 02:12:00,
2013-11-24 21:27:00,24.0,14.0,30.45,NNE,30,0.0,0.0,66,0.00,,,0.01,0,weatherlink.com 1.10,2013-11-25 02:27:00,
2013-11-24 21:42:00,23.9,14.0,30.46,NNE,31,0.0,0.0,66,0.00,,,0.01,0,weatherlink.com 1.10,2013-11-25 02:42:00,
2013-11-24 21:57:00,23.8,15.0,30.45,NNE,31,0.0,0.0,68,0.00,,,0.01,0,weatherlink.com 1.10,2013-11-25 02:57:00,
2013-11-24 22:12:00,23.6,14.0,30.45,NNE,31,0.0,0.0,67,0.00,,,0.01,0,weatherlink.com 1.10,2013-11-25 03:12:00,
2013-11-24 22:27:00,23.7,15.0,30.46,NE,49,0.0,2.0,68,0.00,,,0.01,0,weatherlink.com 1.10,2013-11-25 03:27:00,
2013-11-24 22:42:00,23.8,14.0,30.45,NE,49,1.0,1.0,67,0.00,,,0.01,0,weatherlink.com 1.10,2013-11-25 03:42:00,
2013-11-24 22:57:00,24.0,14.0,30.45,NE,49,0.0,2.0,66,0.00,,,0.01,0,weatherlink.com 1.10,2013-11-25 03:57:00,
2013-11-24 23:12:00,24.2,14.0,30.44,NE,49,0.0,2.0,66,0.00,,,0.01,0,weatherlink.com 1.10,2013-11-25 04:12:00,
2013-11-24 23:27:00,24.2,14.0,30.43,NE,49,0.0,0.0,66,0.00,,,0.01,0,weatherlink.com 1.10,2013-11-25 04:27:00,
2013-11-24 23:42:00,24.2,14.0,30.43,NE,49,0.0,0.0,65,0.00,,,0.01,0,weatherlink.com 1.10,2013-11-25 04:42:00,
2013-11-24 23:57:00,24.2,15.0,30.43,NNE,28,0.0,1.0,68,0.00,,,0.01,0,weatherlink.com 1.10,2013-11-25 04:57:00,